Time;durP1;ratioP1;P1;durP2;ratioP2;P2;SDS_P1;SDS_P2;PMS_P1;PMS_P2;Temp;Humidity;BMP_temperature;BMP_pressure;BME280_temperature;BME280_humidity;BME280_pressure;Samples;Min_cycle;Max_cycle;Signal;HPM_P1;HPM_P2
2021/11/30 00:01:59;;;;;;;2.17;1.33;;;4.70;99.90;;;;;;4911555;29;20230;-80
2021/11/30 00:04:29;;;;;;;1.88;1.42;;;4.70;99.90;;;;;;4900570;29;20233;-79
2021/11/30 00:06:59;;;;;;;1.95;1.25;;;4.80;99.90;;;;;;4911159;29;20206;-82
2021/11/30 00:12:16;;;;;;;3.95;1.40;;;4.80;99.90;;;;;;4917504;29;20205;-79
2021/11/30 00:14:48;;;;;;;1.35;1.20;;;4.70;99.90;;;;;;4915677;29;20204;-79
2021/11/30 00:17:18;;;;;;;1.42;1.33;;;4.60;99.90;;;;;;4908678;29;20670;-79
2021/11/30 00:19:47;;;;;;;1.00;0.90;;;4.70;99.90;;;;;;4911190;29;20230;-80
2021/11/30 00:22:17;;;;;;;1.52;1.42;;;4.50;99.90;;;;;;4900751;29;20233;-79
2021/11/30 00:24:46;;;;;;;3.08;1.10;;;4.50;1.00;;;;;;4908986;29;20213;-80
2021/11/30 00:27:15;;;;;;;1.17;1.10;;;4.70;99.90;;;;;;4908947;29;20526;-80
2021/11/30 00:29:43;;;;;;;1.33;0.90;;;4.70;99.90;;;;;;4912644;29;20735;-79
2021/11/30 00:32:13;;;;;;;0.82;0.82;;;4.90;99.90;;;;;;4912332;29;20314;-81
2021/11/30 00:34:41;;;;;;;1.20;1.05;;;4.70;99.90;;;;;;4896640;29;20202;-80
2021/11/30 00:37:10;;;;;;;1.70;0.90;;;4.60;99.90;;;;;;4919120;29;20273;-79
2021/11/30 00:39:38;;;;;;;1.73;1.33;;;4.60;99.90;;;;;;4910800;29;20257;-81
2021/11/30 00:42:06;;;;;;;1.48;1.00;;;4.50;99.90;;;;;;4902700;29;20631;-79
2021/11/30 00:44:37;;;;;;;1.10;1.00;;;4.40;1.00;;;;;;4907693;29;20217;-79
2021/11/30 00:47:15;;;;;;;3.45;3.25;;;4.50;1.00;;;;;;4911421;29;20218;-79
2021/11/30 00:49:44;;;;;;;1.02;0.70;;;4.50;99.90;;;;;;4918041;29;20607;-82
2021/11/30 00:52:13;;;;;;;1.10;1.00;;;4.60;99.90;;;;;;4905429;29;20676;-80
2021/11/30 00:54:42;;;;;;;0.82;0.80;;;4.70;99.90;;;;;;4913317;29;20713;-80
2021/11/30 00:57:11;;;;;;;1.15;1.05;;;4.70;99.90;;;;;;4911387;29;20195;-79
2021/11/30 00:59:39;;;;;;;0.95;0.80;;;4.70;99.90;;;;;;4907798;29;20222;-82
2021/11/30 01:02:07;;;;;;;0.80;0.80;;;4.70;99.90;;;;;;4909349;29;20309;-82
2021/11/30 01:04:36;;;;;;;1.00;1.00;;;4.50;99.90;;;;;;4915344;29;20218;-82
2021/11/30 01:07:07;;;;;;;1.02;0.90;;;4.50;99.90;;;;;;4914417;29;20288;-80
2021/11/30 01:09:36;;;;;;;1.30;1.00;;;4.60;99.90;;;;;;4911948;29;20218;-79
2021/11/30 01:12:04;;;;;;;2.28;1.30;;;4.50;99.90;;;;;;4907005;29;21494;-80
2021/11/30 01:14:33;;;;;;;1.10;1.00;;;4.60;99.90;;;;;;4907279;29;20282;-80
2021/11/30 01:17:01;;;;;;;2.85;0.90;;;4.70;99.90;;;;;;4903382;29;20230;-82
2021/11/30 01:19:29;;;;;;;3.17;1.00;;;4.60;99.90;;;;;;4911417;29;20299;-80
2021/11/30 01:21:57;;;;;;;4.05;1.00;;;4.50;99.90;;;;;;4907541;29;20225;-81
2021/11/30 01:24:27;;;;;;;1.90;1.10;;;4.40;99.90;;;;;;4900820;29;20218;-82
2021/11/30 01:26:55;;;;;;;0.82;0.82;;;4.50;99.90;;;;;;4907757;29;20373;-82
2021/11/30 01:29:24;;;;;;;1.30;1.10;;;4.50;99.30;;;;;;4926648;29;20654;-81
2021/11/30 01:31:52;;;;;;;1.15;1.05;;;4.60;20.70;;;;;;4906387;29;20206;-80
2021/11/30 01:34:20;;;;;;;0.95;0.80;;;4.50;17.40;;;;;;4918940;29;20206;-81
2021/11/30 01:36:48;;;;;;;1.10;1.00;;;4.70;1.00;;;;;;4907779;29;20225;-80
2021/11/30 01:39:17;;;;;;;0.95;0.95;;;4.80;1.00;;;;;;4905947;29;20234;-78
2021/11/30 01:41:46;;;;;;;1.30;1.10;;;4.60;1.00;;;;;;4912562;29;20258;-79
2021/11/30 01:44:28;;;;;;;1.38;0.93;;;4.70;1.00;;;;;;4915307;29;20214;-81
2021/11/30 01:47:07;;;;;;;0.80;0.80;;;4.60;1.00;;;;;;4906270;29;20232;-79
2021/11/30 01:49:35;;;;;;;0.80;0.80;;;4.70;1.00;;;;;;4901034;29;20221;-79
2021/11/30 01:52:04;;;;;;;0.90;0.90;;;4.80;1.00;;;;;;4908918;29;20209;-80
2021/11/30 01:54:33;;;;;;;0.90;0.90;;;4.80;1.00;;;;;;4913090;29;20212;-80
2021/11/30 01:57:03;;;;;;;0.93;0.90;;;4.80;1.00;;;;;;4916287;29;20209;-78
2021/11/30 01:59:31;;;;;;;0.80;0.80;;;4.90;1.00;;;;;;4905289;29;20229;-81
2021/11/30 02:01:59;;;;;;;1.00;1.00;;;5.00;1.00;;;;;;4906002;29;20831;-81
2021/11/30 02:04:28;;;;;;;1.00;1.00;;;5.10;99.90;;;;;;4897619;29;20561;-82
2021/11/30 02:06:57;;;;;;;3.15;1.02;;;5.10;99.90;;;;;;4909044;29;20553;-82
2021/11/30 02:09:27;;;;;;;0.80;0.77;;;5.40;99.90;;;;;;4908684;29;20240;-80
2021/11/30 02:11:55;;;;;;;1.00;0.90;;;5.10;99.90;;;;;;4905426;29;20471;-80
2021/11/30 02:14:25;;;;;;;1.10;1.00;;;4.90;99.90;;;;;;4903509;29;20463;-80
2021/11/30 02:16:54;;;;;;;0.70;0.70;;;4.80;99.90;;;;;;4896892;29;20560;-82
2021/11/30 02:19:22;;;;;;;1.90;0.90;;;5.00;99.90;;;;;;4910756;29;20482;-79
2021/11/30 02:21:52;;;;;;;0.83;0.83;;;5.00;99.90;;;;;;4899159;29;20479;-79
2021/11/30 02:24:20;;;;;;;2.47;0.80;;;5.30;99.90;;;;;;4917628;29;20457;-78
2021/11/30 02:26:49;;;;;;;0.70;0.70;;;5.00;99.90;;;;;;4903000;29;20469;-81
2021/11/30 02:29:17;;;;;;;0.90;0.90;;;5.10;99.90;;;;;;4911132;29;21114;-79
2021/11/30 02:31:49;;;;;;;0.80;0.80;;;5.00;99.90;;;;;;4921439;29;20468;-80
2021/11/30 02:34:18;;;;;;;1.57;1.00;;;4.90;99.90;;;;;;4902482;29;20477;-82
2021/11/30 02:36:51;;;;;;;0.95;0.93;;;4.90;99.90;;;;;;4904783;29;20470;-79
2021/11/30 02:39:23;;;;;;;1.93;0.97;;;4.90;99.90;;;;;;4905804;29;20237;-80
2021/11/30 02:41:53;;;;;;;1.30;1.20;;;5.20;99.90;;;;;;4900298;29;20493;-81
2021/11/30 02:44:23;;;;;;;0.85;0.82;;;4.70;99.90;;;;;;4896972;29;20863;-81
2021/11/30 02:46:54;;;;;;;1.95;1.10;;;4.60;99.90;;;;;;4904687;29;20207;-80
2021/11/30 02:49:27;;;;;;;0.88;0.88;;;4.60;99.90;;;;;;4913640;29;20222;-80
2021/11/30 02:52:03;;;;;;;0.85;0.75;;;4.50;99.90;;;;;;4914602;29;20206;-80
2021/11/30 02:54:34;;;;;;;2.90;1.05;;;4.60;99.90;;;;;;4911096;29;20206;-81
2021/11/30 02:57:05;;;;;;;2.78;0.90;;;4.50;99.90;;;;;;4914903;29;20202;-78
2021/11/30 02:59:35;;;;;;;0.70;0.70;;;4.60;99.90;;;;;;4901970;29;20272;-79
2021/11/30 03:02:10;;;;;;;1.33;0.87;;;4.50;99.90;;;;;;4907626;29;20230;-78
2021/11/30 03:04:41;;;;;;;3.13;1.00;;;4.40;99.90;;;;;;4915552;29;20555;-80
2021/11/30 03:07:12;;;;;;;1.00;1.00;;;4.30;99.90;;;;;;4916982;29;20201;-80
2021/11/30 03:09:42;;;;;;;1.00;0.90;;;4.40;99.90;;;;;;4908886;29;20276;-83
2021/11/30 03:12:11;;;;;;;1.67;0.70;;;4.60;99.90;;;;;;4912684;29;20543;-79
2021/11/30 03:14:40;;;;;;;0.80;0.80;;;4.20;99.90;;;;;;4910522;29;20212;-78
2021/11/30 03:17:09;;;;;;;0.88;0.88;;;4.40;99.90;;;;;;4903716;29;20569;-79
2021/11/30 03:19:37;;;;;;;0.90;0.88;;;4.30;99.90;;;;;;4913703;29;20222;-80
2021/11/30 03:22:06;;;;;;;1.90;0.70;;;4.20;99.90;;;;;;4912728;29;20233;-79
2021/11/30 03:24:35;;;;;;;0.90;0.90;;;4.20;99.90;;;;;;4904302;29;20213;-81
2021/11/30 03:27:05;;;;;;;1.55;1.27;;;4.10;99.90;;;;;;4909500;29;20301;-81
2021/11/30 03:29:33;;;;;;;0.95;0.88;;;3.90;99.90;;;;;;4913636;29;20251;-80
2021/11/30 03:32:10;;;;;;;1.40;0.90;;;3.80;1.00;;;;;;4921219;29;20274;-79
2021/11/30 03:34:37;;;;;;;1.20;1.10;;;3.70;1.00;;;;;;4899479;29;20197;-78
2021/11/30 03:37:07;;;;;;;0.90;0.90;;;3.70;1.00;;;;;;4912630;29;20224;-81
2021/11/30 03:39:37;;;;;;;0.80;0.80;;;3.80;1.00;;;;;;4914564;29;20628;-79
2021/11/30 03:42:07;;;;;;;1.15;1.05;;;3.80;1.00;;;;;;4917750;29;20702;-80
2021/11/30 03:44:35;;;;;;;1.10;1.10;;;3.90;1.00;;;;;;4907735;29;20588;-82
2021/11/30 03:47:04;;;;;;;0.75;0.75;;;3.70;1.00;;;;;;4912007;29;20739;-83
2021/11/30 03:49:32;;;;;;;2.97;1.13;;;3.60;1.00;;;;;;4912765;29;20227;-83
2021/11/30 03:52:06;;;;;;;1.95;1.13;;;3.30;1.00;;;;;;4908637;29;20211;-79
2021/11/30 03:54:35;;;;;;;1.02;0.90;;;3.00;99.90;;;;;;4916713;29;20746;-82
2021/11/30 03:57:04;;;;;;;0.75;0.75;;;3.10;99.90;;;;;;4914874;29;20215;-79
2021/11/30 03:59:33;;;;;;;1.30;1.15;;;3.00;99.90;;;;;;4910661;29;20232;-78
2021/11/30 04:02:02;;;;;;;1.00;0.70;;;3.10;99.90;;;;;;4923099;29;20221;-82
2021/11/30 04:04:34;;;;;;;1.10;1.10;;;2.90;99.90;;;;;;4906964;29;20300;-78
2021/11/30 04:07:03;;;;;;;1.05;0.90;;;3.00;99.90;;;;;;4909419;29;20216;-79
2021/11/30 04:09:31;;;;;;;2.28;1.00;;;2.90;1.00;;;;;;4907764;29;20229;-80
2021/11/30 04:12:00;;;;;;;0.82;0.82;;;2.90;99.90;;;;;;4907569;29;20216;-78
2021/11/30 04:14:28;;;;;;;2.17;0.90;;;3.10;99.90;;;;;;4911670;29;20775;-80
2021/11/30 04:16:58;;;;;;;1.20;0.80;;;3.20;99.90;;;;;;4910991;29;20223;-81
2021/11/30 04:19:26;;;;;;;1.23;1.13;;;3.40;1.00;;;;;;4914477;29;20232;-81
2021/11/30 04:21:54;;;;;;;1.35;0.88;;;3.30;1.00;;;;;;4903308;29;20616;-81
2021/11/30 04:24:23;;;;;;;1.45;1.10;;;3.00;99.90;;;;;;4907976;29;20657;-79
2021/11/30 04:26:51;;;;;;;0.93;0.90;;;3.10;99.90;;;;;;4915668;29;20214;-82
2021/11/30 04:29:19;;;;;;;1.05;1.05;;;3.30;52.00;;;;;;4906467;29;20223;-81
2021/11/30 04:31:51;;;;;;;1.15;1.05;;;3.60;1.00;;;;;;4905994;29;20224;-81
2021/11/30 04:34:21;;;;;;;1.30;1.00;;;4.00;1.00;;;;;;4908948;29;20242;-81
2021/11/30 04:36:49;;;;;;;0.95;0.95;;;3.90;1.00;;;;;;4910641;29;20210;-78
2021/11/30 04:39:17;;;;;;;1.08;0.82;;;3.50;1.00;;;;;;4915465;29;20843;-80
2021/11/30 04:41:46;;;;;;;0.85;0.85;;;3.30;1.00;;;;;;4910515;29;20307;-81
2021/11/30 04:44:16;;;;;;;1.00;0.90;;;3.60;1.00;;;;;;4904588;29;20228;-81
2021/11/30 04:46:52;;;;;;;1.15;1.05;;;3.30;1.00;;;;;;4910493;29;20700;-80
2021/11/30 04:49:36;;;;;;;1.10;1.00;;;3.30;1.00;;;;;;4904733;29;20242;-81
2021/11/30 04:52:10;;;;;;;1.15;0.90;;;3.40;1.00;;;;;;4919251;29;20212;-80
2021/11/30 04:54:39;;;;;;;1.15;1.05;;;3.00;99.90;;;;;;4905545;29;20210;-79
2021/11/30 04:57:07;;;;;;;1.10;0.88;;;2.90;99.90;;;;;;4909616;29;20207;-80
2021/11/30 04:59:36;;;;;;;0.95;0.95;;;3.20;69.90;;;;;;4913521;29;20255;-81
2021/11/30 05:02:04;;;;;;;1.70;1.10;;;3.20;28.50;;;;;;4904404;29;20206;-79
2021/11/30 05:04:36;;;;;;;2.22;1.60;;;3.10;99.90;;;;;;4913881;29;20240;-80
2021/11/30 05:07:05;;;;;;;2.35;1.20;;;2.90;99.90;;;;;;4907482;29;20667;-78
2021/11/30 05:09:34;;;;;;;4.25;0.98;;;2.70;1.00;;;;;;4917536;29;20959;-79
2021/11/30 05:12:02;;;;;;;1.75;1.25;;;2.80;23.40;;;;;;4923821;29;20200;-78
2021/11/30 05:14:30;;;;;;;1.20;1.10;;;2.70;99.90;;;;;;4904078;29;20196;-78
2021/11/30 05:16:58;;;;;;;2.78;1.27;;;2.60;99.90;;;;;;4904884;29;20204;-78
2021/11/30 05:19:27;;;;;;;1.40;0.95;;;2.80;1.00;;;;;;4910709;29;20235;-78
2021/11/30 05:21:56;;;;;;;1.17;1.10;;;2.80;99.90;;;;;;4913882;29;20213;-78
2021/11/30 05:24:25;;;;;;;1.15;1.10;;;2.60;1.00;;;;;;4909530;29;20236;-82
2021/11/30 05:26:54;;;;;;;1.38;1.27;;;2.80;1.00;;;;;;4912756;29;20218;-79
2021/11/30 05:29:22;;;;;;;0.93;0.85;;;2.70;99.90;;;;;;4903414;29;20306;-78
2021/11/30 05:31:50;;;;;;;1.30;1.20;;;2.50;99.90;;;;;;4900598;29;20708;-79
2021/11/30 05:34:19;;;;;;;2.83;1.88;;;2.80;99.90;;;;;;4911893;29;20463;-79
2021/11/30 05:36:47;;;;;;;1.90;1.30;;;2.60;99.90;;;;;;4915739;29;20209;-80
2021/11/30 05:39:16;;;;;;;1.33;1.23;;;2.60;13.50;;;;;;4901647;29;20574;-78
2021/11/30 05:41:45;;;;;;;2.33;1.38;;;2.40;1.00;;;;;;4905318;29;20220;-77
2021/11/30 05:44:13;;;;;;;1.50;1.40;;;2.30;1.00;;;;;;4908551;29;20254;-79
2021/11/30 05:46:41;;;;;;;1.63;1.40;;;2.20;1.00;;;;;;4904593;29;20214;-76
2021/11/30 05:49:09;;;;;;;1.35;1.25;;;2.20;1.00;;;;;;4913918;29;20248;-77
2021/11/30 05:51:38;;;;;;;2.85;1.20;;;2.30;1.00;;;;;;4915586;29;20253;-77
2021/11/30 05:54:07;;;;;;;2.22;1.73;;;2.30;99.90;;;;;;4904496;29;20219;-81
2021/11/30 05:56:57;;;;;;;1.58;1.00;;;2.20;1.00;;;;;;4905720;29;20215;-79
2021/11/30 05:59:26;;;;;;;1.25;1.15;;;2.30;1.00;;;;;;4900482;29;20221;-79
2021/11/30 06:01:55;;;;;;;1.83;1.38;;;2.10;7.50;;;;;;4904744;29;20216;-77
2021/11/30 06:04:24;;;;;;;2.25;1.10;;;2.00;99.90;;;;;;4906323;29;20229;-76
2021/11/30 06:06:52;;;;;;;2.42;1.40;;;2.20;99.90;;;;;;4905287;29;20218;-81
2021/11/30 06:09:20;;;;;;;1.23;1.17;;;2.00;99.90;;;;;;4899454;29;20234;-76
2021/11/30 06:11:48;;;;;;;1.60;1.10;;;1.80;1.00;;;;;;4892021;29;20220;-80
2021/11/30 06:14:18;;;;;;;1.70;1.60;;;2.00;1.00;;;;;;4901150;29;20219;-76
2021/11/30 06:16:46;;;;;;;1.60;1.50;;;2.00;99.90;;;;;;4899584;29;20302;-79
2021/11/30 06:19:15;;;;;;;2.75;1.40;;;2.30;1.00;;;;;;4897916;29;20736;-78
2021/11/30 06:21:45;;;;;;;3.72;1.60;;;1.70;99.90;;;;;;4904827;29;20217;-78
2021/11/30 06:24:13;;;;;;;2.30;1.50;;;1.70;1.00;;;;;;4901333;29;20235;-79
2021/11/30 06:26:41;;;;;;;1.75;1.65;;;1.70;1.00;;;;;;4898119;29;20243;-77
2021/11/30 06:29:09;;;;;;;2.13;2.03;;;1.90;1.00;;;;;;4904159;29;20228;-76
2021/11/30 06:31:39;;;;;;;2.97;1.40;;;1.90;1.00;;;;;;4902847;29;20218;-81
2021/11/30 06:34:07;;;;;;;2.42;1.60;;;2.10;1.00;;;;;;4908362;29;20700;-81
2021/11/30 06:36:36;;;;;;;2.38;1.50;;;1.80;1.00;;;;;;4893562;29;20210;-78
2021/11/30 06:39:05;;;;;;;2.03;1.40;;;1.70;99.90;;;;;;4907028;29;20317;-78
2021/11/30 06:41:33;;;;;;;1.65;1.40;;;2.20;1.00;;;;;;4896199;29;20206;-78
2021/11/30 06:44:02;;;;;;;2.90;1.38;;;1.90;1.00;;;;;;4899804;29;20228;-78
2021/11/30 06:46:30;;;;;;;2.53;1.30;;;2.20;99.90;;;;;;4903021;29;20296;-79
2021/11/30 06:48:59;;;;;;;2.88;1.77;;;2.20;99.90;;;;;;4905430;29;20407;-80
2021/11/30 06:51:28;;;;;;;1.60;1.50;;;2.40;99.90;;;;;;4886307;29;20216;-78
2021/11/30 06:53:56;;;;;;;1.23;1.10;;;2.30;1.00;;;;;;4896469;29;20572;-80
2021/11/30 06:56:24;;;;;;;1.73;1.50;;;2.10;1.00;;;;;;4907936;29;20214;-77
2021/11/30 06:58:52;;;;;;;1.05;1.00;;;2.10;99.90;;;;;;4899406;29;20232;-78
2021/11/30 07:01:20;;;;;;;1.25;1.15;;;2.00;1.00;;;;;;4906298;29;20232;-76
2021/11/30 07:03:49;;;;;;;2.15;1.05;;;1.90;1.00;;;;;;4901780;29;20222;-79
2021/11/30 07:06:25;;;;;;;2.67;1.73;;;1.90;99.90;;;;;;4902195;29;20206;-81
2021/11/30 07:09:02;;;;;;;1.15;1.05;;;1.90;21.90;;;;;;4900352;29;20240;-79
2021/11/30 07:11:54;;;;;;;1.30;1.15;;;1.80;99.90;;;;;;4910695;29;20215;-78
2021/11/30 07:14:22;;;;;;;1.30;1.25;;;1.90;99.90;;;;;;4906217;29;20207;-77
2021/11/30 07:16:50;;;;;;;3.58;2.55;;;1.90;1.00;;;;;;4906324;29;20215;-77
2021/11/30 07:19:19;;;;;;;1.08;1.08;;;2.00;99.90;;;;;;4904551;29;20255;-81
2021/11/30 07:21:48;;;;;;;1.10;1.00;;;2.10;99.90;;;;;;4897833;29;20224;-80
2021/11/30 07:24:16;;;;;;;1.85;1.30;;;2.30;99.90;;;;;;4901115;29;20231;-81
2021/11/30 07:26:44;;;;;;;1.70;1.27;;;2.20;1.00;;;;;;4898982;29;20202;-77
2021/11/30 07:29:33;;;;;;;0.95;0.95;;;2.40;99.90;;;;;;4898274;29;20236;-82
2021/11/30 07:32:01;;;;;;;1.30;1.20;;;2.40;1.00;;;;;;4903267;29;20218;-78
2021/11/30 07:34:30;;;;;;;2.35;1.25;;;2.30;1.00;;;;;;4897881;29;20238;-80
2021/11/30 07:37:00;;;;;;;0.90;0.90;;;2.10;1.00;;;;;;4901174;29;20221;-82
2021/11/30 07:39:28;;;;;;;4.50;1.20;;;2.30;1.00;;;;;;4908195;29;20234;-77
2021/11/30 07:41:56;;;;;;;0.95;0.85;;;2.20;1.00;;;;;;4899601;29;20231;-77
2021/11/30 07:44:24;;;;;;;1.52;1.00;;;2.10;99.90;;;;;;4908624;29;20229;-76
2021/11/30 07:46:53;;;;;;;0.85;0.70;;;2.20;99.90;;;;;;4908258;29;20221;-76
2021/11/30 07:49:21;;;;;;;2.90;0.80;;;1.80;99.90;;;;;;4902712;29;20656;-78
2021/11/30 07:51:50;;;;;;;0.82;0.82;;;2.10;99.90;;;;;;4905789;29;20639;-82
2021/11/30 07:54:19;;;;;;;1.02;0.90;;;2.10;1.00;;;;;;4903046;29;20289;-79
2021/11/30 07:56:48;;;;;;;1.60;0.80;;;2.10;99.90;;;;;;4899532;29;20216;-77
2021/11/30 07:59:19;;;;;;;1.60;1.20;;;2.00;1.00;;;;;;4898419;29;20474;-80
2021/11/30 08:01:47;;;;;;;1.42;1.33;;;2.00;99.90;;;;;;4910872;29;20227;-78
2021/11/30 08:04:16;;;;;;;0.90;0.90;;;1.90;1.00;;;;;;4904872;29;20215;-78
2021/11/30 08:06:44;;;;;;;1.25;1.02;;;2.00;99.90;;;;;;4907269;29;20219;-77
2021/11/30 08:09:12;;;;;;;1.00;0.80;;;2.10;99.90;;;;;;4901422;29;20246;-77
2021/11/30 08:11:42;;;;;;;1.90;0.82;;;2.20;1.00;;;;;;4896823;29;20219;-78
2021/11/30 08:14:15;;;;;;;1.30;1.15;;;2.60;99.90;;;;;;4900991;29;20714;-78
2021/11/30 08:16:43;;;;;;;1.08;0.95;;;2.50;1.00;;;;;;4887221;29;20458;-81
2021/11/30 08:19:12;;;;;;;0.80;0.80;;;2.10;99.90;;;;;;4919063;29;20235;-82
2021/11/30 08:21:40;;;;;;;0.93;0.82;;;2.30;99.90;;;;;;4905752;29;20212;-76
2021/11/30 08:24:09;;;;;;;0.80;0.80;;;2.40;58.10;;;;;;4901064;29;20214;-79
2021/11/30 08:26:37;;;;;;;2.13;1.20;;;2.50;99.90;;;;;;4903239;29;20243;-82
2021/11/30 08:29:07;;;;;;;0.90;0.90;;;2.60;1.00;;;;;;4905006;29;20234;-79
2021/11/30 08:31:37;;;;;;;1.15;1.05;;;2.50;99.90;;;;;;4905519;29;20805;-78
2021/11/30 08:34:05;;;;;;;1.00;1.00;;;2.50;99.90;;;;;;4903983;29;20206;-78
2021/11/30 08:36:33;;;;;;;1.60;0.80;;;2.50;1.00;;;;;;4900793;29;20219;-79
2021/11/30 08:39:03;;;;;;;1.35;0.70;;;2.60;58.10;;;;;;4903965;29;20263;-77
2021/11/30 08:41:32;;;;;;;2.20;1.00;;;2.70;1.00;;;;;;4905129;29;20207;-77
2021/11/30 08:44:00;;;;;;;1.20;1.10;;;2.80;1.00;;;;;;4902430;29;20326;-80
2021/11/30 08:46:46;;;;;;;1.10;1.00;;;2.80;99.90;;;;;;4895539;29;20227;-78
2021/11/30 08:49:15;;;;;;;1.13;0.93;;;2.70;99.90;;;;;;4899326;29;20253;-82
2021/11/30 08:51:43;;;;;;;5.53;1.30;;;2.70;99.90;;;;;;4902235;29;20206;-79
2021/11/30 08:54:12;;;;;;;0.93;0.75;;;2.60;1.00;;;;;;4901284;29;20220;-78
2021/11/30 08:56:40;;;;;;;1.20;0.90;;;2.70;99.90;;;;;;4894823;29;20207;-77
2021/11/30 08:59:11;;;;;;;1.33;0.82;;;2.70;1.00;;;;;;4904196;29;20286;-81
2021/11/30 09:01:40;;;;;;;1.38;0.80;;;2.90;1.00;;;;;;4887607;29;20234;-79
2021/11/30 09:04:10;;;;;;;1.02;1.00;;;2.60;99.90;;;;;;4897648;29;20223;-78
2021/11/30 09:06:39;;;;;;;0.82;0.82;;;2.70;4.40;;;;;;4902331;29;20462;-79
2021/11/30 09:09:09;;;;;;;1.40;1.02;;;2.50;1.00;;;;;;4906047;29;20785;-80
2021/11/30 09:11:58;;;;;;;4.22;0.93;;;2.40;99.90;;;;;;4902059;29;20646;-79
2021/11/30 09:14:26;;;;;;;0.75;0.68;;;2.50;1.00;;;;;;4899429;29;20205;-79
2021/11/30 09:16:57;;;;;;;1.40;0.75;;;2.50;99.90;;;;;;4902887;29;20213;-79
2021/11/30 09:19:27;;;;;;;0.80;0.75;;;2.50;1.00;;;;;;4900668;29;20263;-77
2021/11/30 09:21:55;;;;;;;0.90;0.90;;;2.50;99.90;;;;;;4908124;29;20224;-78
2021/11/30 09:24:24;;;;;;;1.35;0.90;;;2.60;99.90;;;;;;4905317;29;20215;-77
2021/11/30 09:26:53;;;;;;;0.90;0.90;;;2.70;99.90;;;;;;4903830;29;20463;-79
2021/11/30 09:29:21;;;;;;;2.63;0.90;;;2.50;1.00;;;;;;4912046;29;20245;-78
2021/11/30 09:31:49;;;;;;;0.90;0.90;;;2.50;99.90;;;;;;4893117;29;20210;-78
2021/11/30 09:34:18;;;;;;;1.10;0.80;;;2.50;52.10;;;;;;4901558;29;20211;-77
2021/11/30 09:36:48;;;;;;;0.93;0.80;;;2.90;1.00;;;;;;4911563;29;20206;-83
2021/11/30 09:39:17;;;;;;;1.08;1.00;;;2.80;99.90;;;;;;4900123;29;20311;-79
2021/11/30 09:41:45;;;;;;;0.65;0.65;;;2.60;99.90;;;;;;4903373;29;20229;-82
2021/11/30 09:44:15;;;;;;;0.80;0.80;;;2.60;27.10;;;;;;4903317;29;20210;-77
2021/11/30 09:46:44;;;;;;;1.13;0.80;;;2.70;1.00;;;;;;4913099;29;20237;-80
2021/11/30 09:49:14;;;;;;;1.20;1.00;;;2.70;1.00;;;;;;4888055;29;20269;-78
2021/11/30 09:51:43;;;;;;;0.70;0.70;;;2.90;28.30;;;;;;4903390;29;20642;-78
2021/11/30 09:54:12;;;;;;;1.17;0.88;;;2.70;1.00;;;;;;4906374;29;20224;-79
2021/11/30 09:56:40;;;;;;;0.75;0.75;;;2.70;99.90;;;;;;4895907;29;20211;-79
2021/11/30 09:59:09;;;;;;;1.30;0.80;;;2.60;99.90;;;;;;4904447;29;20227;-77
2021/11/30 10:01:38;;;;;;;1.85;1.30;;;2.50;1.00;;;;;;4905059;29;20680;-77
2021/11/30 10:04:08;;;;;;;1.50;0.80;;;2.60;1.00;;;;;;4904744;29;20271;-82
2021/11/30 10:06:36;;;;;;;0.95;0.75;;;2.70;1.00;;;;;;4906189;29;20229;-80
2021/11/30 10:09:18;;;;;;;0.70;0.70;;;2.80;1.00;;;;;;4905717;29;20308;-81
2021/11/30 10:11:54;;;;;;;0.80;0.77;;;2.90;1.00;;;;;;4904185;29;20202;-83
2021/11/30 10:14:26;;;;;;;0.65;0.60;;;2.80;99.90;;;;;;4916927;29;20219;-78
2021/11/30 10:17:18;;;;;;;0.60;0.60;;;2.70;1.00;;;;;;4907228;29;20205;-79
2021/11/30 10:19:54;;;;;;;1.30;0.80;;;2.50;99.90;;;;;;4901185;29;20239;-79
2021/11/30 10:22:41;;;;;;;2.08;0.80;;;2.70;99.90;;;;;;4904391;29;20697;-78
2021/11/30 10:25:22;;;;;;;0.73;0.60;;;2.80;1.00;;;;;;4901637;29;20214;-79
2021/11/30 10:27:52;;;;;;;1.00;0.77;;;2.90;1.00;;;;;;4907825;29;20252;-81
2021/11/30 10:30:23;;;;;;;0.95;0.60;;;2.90;1.00;;;;;;4908366;29;20217;-82
2021/11/30 10:32:53;;;;;;;0.60;0.60;;;3.10;99.90;;;;;;4897016;29;20264;-79
2021/11/30 10:35:24;;;;;;;1.10;0.60;;;2.90;1.00;;;;;;4896769;29;20472;-78
2021/11/30 10:37:53;;;;;;;0.85;0.85;;;3.00;99.90;;;;;;4896082;29;20222;-81
2021/11/30 10:40:26;;;;;;;0.52;0.52;;;2.90;1.00;;;;;;4904226;29;20519;-80
2021/11/30 10:42:56;;;;;;;1.02;0.47;;;3.10;99.90;;;;;;4896458;29;20240;-78
2021/11/30 10:45:32;;;;;;;0.82;0.60;;;2.90;99.90;;;;;;4906917;29;20214;-81
2021/11/30 10:48:07;;;;;;;2.95;0.50;;;2.90;99.90;;;;;;4896758;29;20238;-79
2021/11/30 10:50:37;;;;;;;0.50;0.50;;;3.10;99.90;;;;;;4896522;29;20209;-83
2021/11/30 10:53:17;;;;;;;2.25;0.50;;;3.10;90.20;;;;;;4907956;29;20223;-80
2021/11/30 10:55:49;;;;;;;0.43;0.40;;;3.30;1.00;;;;;;4905765;29;20619;-77
2021/11/30 10:58:19;;;;;;;0.50;0.47;;;3.50;1.00;;;;;;4893132;29;20242;-78
2021/11/30 11:00:48;;;;;;;0.40;0.40;;;3.60;1.00;;;;;;4891121;29;20217;-78
2021/11/30 11:03:20;;;;;;;0.60;0.60;;;3.30;23.90;;;;;;4906379;29;20238;-79
2021/11/30 11:06:24;;;;;;;0.68;0.60;;;3.20;99.90;;;;;;4902068;29;20213;-79
2021/11/30 11:08:43;;;;;;;0.60;0.60;;;3.10;1.00;;;;;;4894999;29;20711;-80
2021/11/30 11:11:16;;;;;;;0.88;0.52;;;3.40;1.00;;;;;;4911430;29;20235;-81
2021/11/30 11:13:45;;;;;;;0.50;0.50;;;3.30;1.00;;;;;;4908280;29;20209;-80
2021/11/30 11:16:20;;;;;;;0.50;0.50;;;3.50;99.90;;;;;;4907486;29;20208;-78
2021/11/30 11:18:50;;;;;;;0.50;0.50;;;3.40;99.90;;;;;;4907486;29;20258;-80
2021/11/30 11:21:21;;;;;;;1.42;0.85;;;3.20;1.00;;;;;;4907032;29;20207;-78
2021/11/30 11:24:05;;;;;;;0.55;0.55;;;3.20;1.00;;;;;;4908043;29;20218;-77
2021/11/30 11:26:37;;;;;;;1.58;0.70;;;3.10;1.00;;;;;;4903047;29;20226;-78
2021/11/30 11:29:09;;;;;;;0.70;0.50;;;3.20;1.00;;;;;;4902327;29;20284;-83
2021/11/30 11:31:40;;;;;;;0.63;0.57;;;3.40;99.90;;;;;;4903352;29;20683;-80
2021/11/30 11:34:10;;;;;;;0.88;0.50;;;3.50;1.00;;;;;;4911947;29;20205;-78
2021/11/30 11:36:43;;;;;;;0.40;0.40;;;3.50;99.90;;;;;;4908080;29;20218;-82
2021/11/30 11:39:14;;;;;;;0.52;0.52;;;3.40;1.00;;;;;;4902464;29;20234;-79
2021/11/30 11:41:44;;;;;;;0.50;0.50;;;3.60;1.00;;;;;;4908739;29;20666;-80
2021/11/30 11:44:13;;;;;;;0.68;0.65;;;3.70;99.90;;;;;;4904434;29;20227;-81
2021/11/30 11:46:41;;;;;;;0.60;0.60;;;3.60;8.70;;;;;;4902640;29;20363;-81
2021/11/30 11:49:13;;;;;;;0.60;0.50;;;3.70;99.90;;;;;;4899846;29;20231;-80
2021/11/30 11:51:44;;;;;;;0.57;0.57;;;3.10;37.00;;;;;;4906860;29;20207;-81
2021/11/30 11:54:28;;;;;;;0.65;0.63;;;3.30;99.90;;;;;;4905838;29;20204;-82
2021/11/30 11:57:00;;;;;;;2.03;0.70;;;3.50;1.00;;;;;;4903327;29;20204;-81
2021/11/30 11:59:32;;;;;;;0.80;0.70;;;3.10;99.90;;;;;;4902094;29;20236;-79
2021/11/30 12:02:19;;;;;;;0.70;0.70;;;3.30;99.90;;;;;;4906814;29;20213;-78
2021/11/30 12:04:51;;;;;;;0.70;0.70;;;3.40;1.00;;;;;;4905481;29;20273;-84
2021/11/30 12:07:20;;;;;;;0.60;0.60;;;3.40;91.90;;;;;;4902134;29;20283;-83
2021/11/30 12:09:49;;;;;;;0.55;0.55;;;3.30;99.90;;;;;;4891103;29;20233;-81
2021/11/30 12:12:23;;;;;;;0.50;0.50;;;3.40;98.10;;;;;;4890968;29;20208;-77
2021/11/30 12:15:01;;;;;;;0.85;0.60;;;3.50;97.40;;;;;;4903782;29;20272;-79
2021/11/30 12:17:30;;;;;;;0.70;0.70;;;3.70;99.90;;;;;;4898915;29;20457;-77
2021/11/30 12:20:11;;;;;;;3.10;0.70;;;3.40;99.90;;;;;;4888632;29;20289;-80
2021/11/30 12:22:54;;;;;;;1.10;0.85;;;3.30;99.90;;;;;;4899777;29;20292;-78
2021/11/30 12:25:29;;;;;;;0.60;0.60;;;3.40;34.80;;;;;;4903898;29;20213;-81
2021/11/30 12:28:01;;;;;;;0.60;0.60;;;3.40;99.90;;;;;;4892061;29;20232;-78
2021/11/30 12:30:45;;;;;;;1.90;1.00;;;3.50;99.90;;;;;;4905719;29;20282;-79
2021/11/30 12:33:17;;;;;;;1.88;0.98;;;3.50;99.90;;;;;;4902100;29;20205;-81
2021/11/30 12:35:53;;;;;;;3.33;0.63;;;3.40;1.00;;;;;;4903497;29;20207;-78
2021/11/30 12:38:33;;;;;;;0.70;0.70;;;3.30;99.90;;;;;;4903810;29;20280;-82
2021/11/30 12:41:23;;;;;;;0.93;0.50;;;3.30;99.90;;;;;;4900725;29;20969;-79
2021/11/30 12:43:54;;;;;;;0.60;0.60;;;3.40;99.90;;;;;;4899155;29;20212;-81
2021/11/30 12:46:32;;;;;;;0.80;0.60;;;3.50;99.90;;;;;;4903982;29;20469;-78
2021/11/30 12:49:03;;;;;;;0.50;0.50;;;3.20;1.00;;;;;;4904559;29;20572;-78
2021/11/30 12:51:34;;;;;;;1.88;0.60;;;3.20;1.00;;;;;;4904919;29;20209;-79
2021/11/30 12:54:21;;;;;;;0.73;0.73;;;3.20;17.00;;;;;;4906197;29;20217;-82
2021/11/30 12:56:52;;;;;;;0.73;0.50;;;3.50;99.90;;;;;;4890674;29;20207;-78
2021/11/30 12:59:54;;;;;;;0.50;0.50;;;3.10;99.90;;;;;;4907251;29;20725;-78
2021/11/30 13:02:36;;;;;;;0.60;0.60;;;3.20;1.00;;;;;;4902052;29;20224;-78
2021/11/30 13:05:39;;;;;;;0.75;0.75;;;3.10;32.60;;;;;;4906602;29;20224;-78
2021/11/30 13:08:09;;;;;;;0.80;0.60;;;3.10;99.90;;;;;;4843920;29;20805;-83
2021/11/30 13:10:42;;;;;;;0.50;0.50;;;3.10;99.90;;;;;;4860319;29;20397;-79
2021/11/30 13:13:17;;;;;;;0.65;0.65;;;3.30;99.90;;;;;;4881506;29;20280;-81
2021/11/30 13:15:49;;;;;;;0.50;0.50;;;3.20;1.00;;;;;;4897508;29;20211;-81
2021/11/30 13:18:20;;;;;;;0.60;0.60;;;3.30;1.00;;;;;;4894665;29;20224;-82
2021/11/30 13:20:49;;;;;;;1.27;0.50;;;3.40;1.00;;;;;;4904662;29;20219;-80
2021/11/30 13:23:18;;;;;;;0.50;0.50;;;3.40;1.00;;;;;;4902627;29;20684;-79